Time;durP1;ratioP1;P1;durP2;ratioP2;P2;SDS_P1;SDS_P2;PMS_P1;PMS_P2;Temp;Humidity;BMP_temperature;BMP_pressure;BME280_temperature;BME280_humidity;BME280_pressure;Samples;Min_cycle;Max_cycle;Signal;HPM_P1;HPM_P2
2024/01/14 00:02:33;;;;;;;16.10;3.23;;;2.60;99.90;;;;;;4920207;29;20098;-95
2024/01/14 00:08:00;;;;;;;12.07;2.77;;;4.30;99.90;;;;;;4907935;29;20055;-96
2024/01/14 00:10:31;;;;;;;14.00;2.53;;;3.00;99.90;;;;;;4920081;29;20051;-95
2024/01/14 00:13:37;;;;;;;12.10;2.63;;;3.20;99.90;;;;;;4920319;29;20373;-95
2024/01/14 00:16:05;;;;;;;11.47;2.47;;;4.70;99.90;;;;;;4978659;23;20465;-94
2024/01/14 00:18:37;;;;;;;10.83;2.57;;;4.20;99.90;;;;;;4900853;29;20083;-96
2024/01/14 00:21:09;;;;;;;12.63;2.70;;;4.50;99.90;;;;;;4918879;23;20068;-96
2024/01/14 00:28:22;;;;;;;10.40;1.97;;;2.50;99.90;;;;;;4871253;29;20454;-95
2024/01/14 00:31:21;;;;;;;;;;;4.30;99.90;;;;;;4865026;29;20453;-96
2024/01/14 00:34:59;;;;;;;12.20;2.40;;;2.90;99.90;;;;;;4863206;29;19955;-96
2024/01/14 00:38:32;;;;;;;13.17;2.40;;;2.90;99.90;;;;;;4863067;29;20053;-96
2024/01/14 00:41:56;;;;;;;12.17;2.10;;;2.60;99.90;;;;;;4862155;29;20060;-95
2024/01/14 00:45:34;;;;;;;10.63;1.97;;;4.60;99.90;;;;;;4862277;29;20109;-96
2024/01/14 00:48:05;;;;;;;11.18;1.85;;;2.70;99.90;;;;;;4862331;29;20057;-95
2024/01/14 00:50:43;;;;;;;12.47;2.20;;;3.20;99.90;;;;;;4875969;29;20075;-95
2024/01/14 00:53:09;;;;;;;12.10;2.00;;;3.00;99.90;;;;;;4900018;29;20488;-96
2024/01/14 00:55:47;;;;;;;11.77;3.10;;;3.30;99.90;;;;;;4895032;29;20059;-96
2024/01/14 00:58:16;;;;;;;11.93;2.53;;;3.70;99.90;;;;;;4902445;29;20067;-95
2024/01/14 01:00:45;;;;;;;13.83;2.30;;;3.30;99.90;;;;;;4904429;29;20055;-95
2024/01/14 01:03:20;;;;;;;15.67;2.97;;;3.50;99.90;;;;;;4904345;29;20191;-95
2024/01/14 01:05:49;;;;;;;13.57;2.20;;;5.00;99.90;;;;;;4904775;29;20090;-95
2024/01/14 01:08:24;;;;;;;15.50;2.50;;;4.40;99.90;;;;;;4904029;29;20051;-95
2024/01/14 01:10:56;;;;;;;10.70;2.23;;;3.80;99.90;;;;;;4904237;29;20047;-96
2024/01/14 01:13:24;;;;;;;13.40;1.93;;;4.80;99.90;;;;;;4904714;29;20044;-95
2024/01/14 01:15:59;;;;;;;15.10;2.53;;;5.00;99.90;;;;;;4904260;29;20059;-95
2024/01/14 01:18:31;;;;;;;12.53;2.20;;;3.20;99.90;;;;;;4905513;29;20043;-95
2024/01/14 01:21:22;;;;;;;9.47;1.97;;;3.40;99.90;;;;;;4905666;29;20499;-94
2024/01/14 01:23:56;;;;;;;12.40;2.23;;;4.40;99.90;;;;;;5151599;23;20610;-95
2024/01/14 01:26:23;;;;;;;14.20;2.10;;;3.80;99.90;;;;;;4928649;29;20114;-95
2024/01/14 01:28:55;;;;;;;11.23;2.30;;;4.20;99.90;;;;;;4994520;23;20070;-95
2024/01/14 01:31:27;;;;;;;6.93;1.67;;;3.60;99.90;;;;;;4927072;29;20043;-95
2024/01/14 01:36:29;;;;;;;9.97;2.00;;;3.50;99.90;;;;;;4938286;29;20052;-94
2024/01/14 01:39:02;;;;;;;10.87;2.00;;;5.00;99.90;;;;;;4922563;29;20047;-95
2024/01/14 01:41:30;;;;;;;11.80;2.57;;;4.90;99.90;;;;;;4923073;29;20039;-95
2024/01/14 01:44:09;;;;;;;12.20;1.83;;;3.20;99.90;;;;;;4928065;23;20055;-95
2024/01/14 01:46:35;;;;;;;12.27;2.03;;;4.30;99.90;;;;;;4922973;29;20051;-95
2024/01/14 01:49:05;;;;;;;11.10;1.93;;;3.10;99.90;;;;;;4922349;29;20040;-93
2024/01/14 01:51:39;;;;;;;6.03;1.43;;;5.10;99.90;;;;;;4984333;23;20058;-96
2024/01/14 01:54:04;;;;;;;;;;;3.60;99.90;;;;;;4941675;29;20047;-95
2024/01/14 01:56:38;;;;;;;7.90;1.60;;;5.20;99.90;;;;;;4941643;29;19950;-94
2024/01/14 01:59:11;;;;;;;10.13;1.45;;;3.10;99.90;;;;;;4941294;29;20047;-94
2024/01/14 02:01:40;;;;;;;9.35;1.92;;;4.60;99.90;;;;;;4941885;29;20106;-96
2024/01/14 02:04:13;;;;;;;10.50;1.67;;;5.50;99.90;;;;;;4941445;29;20043;-94
2024/01/14 02:06:42;;;;;;;13.65;1.73;;;3.50;99.90;;;;;;4947625;28;20054;-95
2024/01/14 02:09:15;;;;;;;6.60;1.63;;;4.10;99.90;;;;;;4960260;28;20440;-94
2024/01/14 02:11:50;;;;;;;11.80;1.90;;;4.50;99.90;;;;;;4963786;28;20078;-94
2024/01/14 02:14:19;;;;;;;7.17;1.20;;;3.20;99.90;;;;;;4944712;29;20136;-95
2024/01/14 02:16:44;;;;;;;9.20;1.43;;;3.40;99.90;;;;;;4947209;28;20038;-95
2024/01/14 02:19:19;;;;;;;7.70;1.47;;;2.40;99.90;;;;;;4960323;28;20185;-96
2024/01/14 02:24:57;;;;;;;7.87;1.03;;;3.60;99.90;;;;;;4940934;29;20058;-95
2024/01/14 02:27:29;;;;;;;8.27;1.57;;;4.70;99.90;;;;;;4953172;28;20097;-95
2024/01/14 02:29:59;;;;;;;6.40;1.10;;;3.40;99.90;;;;;;4960453;28;20050;-95
2024/01/14 02:32:37;;;;;;;4.43;0.97;;;4.20;99.90;;;;;;4961732;28;20047;-95
2024/01/14 02:35:05;;;;;;;9.27;1.13;;;3.80;99.90;;;;;;4959938;28;20042;-94
2024/01/14 02:37:43;;;;;;;6.13;1.30;;;3.30;99.90;;;;;;4959996;28;20134;-95
2024/01/14 02:40:10;;;;;;;15.80;2.43;;;3.00;99.90;;;;;;4959534;28;20443;-94
2024/01/14 02:42:36;;;;;;;7.27;1.50;;;3.40;99.90;;;;;;4960064;28;20046;-95
2024/01/14 02:47:58;;;;;;;4.53;1.27;;;3.40;99.90;;;;;;4961650;23;20055;-95
2024/01/14 02:50:37;;;;;;;7.17;1.43;;;3.30;99.90;;;;;;4912419;29;20075;-94
2024/01/14 02:53:08;;;;;;;5.30;1.40;;;3.80;99.90;;;;;;4916346;29;20107;-94
2024/01/14 02:55:43;;;;;;;5.03;1.50;;;2.70;99.90;;;;;;4921371;29;20488;-94
2024/01/14 02:58:09;;;;;;;10.30;1.73;;;3.20;99.90;;;;;;4920556;29;20122;-93
2024/01/14 03:00:34;;;;;;;8.97;1.47;;;3.30;99.90;;;;;;4920950;29;20074;-94
2024/01/14 03:03:14;;;;;;;11.07;2.50;;;3.40;99.90;;;;;;4921550;29;20058;-94
2024/01/14 03:05:40;;;;;;;8.33;1.60;;;3.80;99.90;;;;;;4920938;29;20048;-95
2024/01/14 03:08:17;;;;;;;6.43;1.83;;;3.90;99.90;;;;;;4920328;29;20397;-94
2024/01/14 03:10:55;;;;;;;9.03;2.00;;;2.60;99.90;;;;;;4921288;29;20094;-95
2024/01/14 03:13:32;;;;;;;5.80;1.60;;;3.00;99.90;;;;;;4920843;29;20139;-95
2024/01/14 03:16:04;;;;;;;7.23;1.67;;;4.00;99.90;;;;;;4907159;29;20152;-95
2024/01/14 03:18:39;;;;;;;9.63;1.90;;;2.90;99.90;;;;;;4902491;29;20115;-95
2024/01/14 03:21:40;;;;;;;13.93;2.00;;;4.30;99.90;;;;;;4901290;29;20117;-95
2024/01/14 03:24:17;;;;;;;9.93;1.83;;;2.90;99.90;;;;;;4844636;29;20072;-94
2024/01/14 03:26:53;;;;;;;9.03;1.83;;;2.50;99.90;;;;;;4849881;29;20565;-96
2024/01/14 03:29:39;;;;;;;11.07;1.97;;;4.40;99.90;;;;;;4882153;29;20500;-95
2024/01/14 03:32:14;;;;;;;9.80;2.20;;;2.90;99.90;;;;;;4885277;29;20142;-94
2024/01/14 03:34:55;;;;;;;8.93;1.60;;;2.80;99.90;;;;;;4915368;29;20059;-94
2024/01/14 03:37:24;;;;;;;9.13;2.10;;;2.80;99.90;;;;;;5091271;23;20162;-94
2024/01/14 03:44:44;;;;;;;6.83;1.40;;;2.80;99.90;;;;;;4938831;29;20055;-95
2024/01/14 03:47:13;;;;;;;11.30;2.30;;;3.90;99.90;;;;;;4937891;29;20055;-93
2024/01/14 03:50:19;;;;;;;8.43;1.80;;;4.50;99.90;;;;;;4919817;29;20151;-94
2024/01/14 03:53:03;;;;;;;10.80;1.87;;;3.30;99.90;;;;;;4939790;29;20058;-94
2024/01/14 03:55:38;;;;;;;;;;;4.10;99.90;;;;;;5187865;23;20078;-93
2024/01/14 03:58:19;;;;;;;11.07;1.90;;;4.10;99.90;;;;;;4920957;29;19923;-93
2024/01/14 04:00:48;;;;;;;5.13;1.47;;;3.50;99.90;;;;;;4943398;23;20136;-95
2024/01/14 04:03:17;;;;;;;9.60;1.97;;;2.50;99.90;;;;;;4918837;29;20054;-94
2024/01/14 04:05:45;;;;;;;11.97;2.17;;;4.40;99.90;;;;;;4920040;29;20043;-94
2024/01/14 04:08:11;;;;;;;9.57;1.93;;;3.00;99.90;;;;;;4931105;29;20057;-95
2024/01/14 04:10:46;;;;;;;12.80;2.53;;;2.80;99.90;;;;;;4938979;29;20126;-94
2024/01/14 04:13:24;;;;;;;8.30;1.70;;;3.60;99.90;;;;;;4939453;29;20106;-93
2024/01/14 04:24:12;;;;;;;15.97;2.33;;;3.80;99.90;;;;;;4895536;29;20059;-94
2024/01/14 04:27:02;;;;;;;9.27;2.33;;;3.80;99.90;;;;;;4882233;29;20091;-94
2024/01/14 04:29:43;;;;;;;12.83;2.37;;;2.30;99.90;;;;;;4882709;29;20060;-94
2024/01/14 04:32:27;;;;;;;12.40;2.60;;;2.00;99.90;;;;;;4900590;29;20045;-95
2024/01/14 04:35:12;;;;;;;10.43;2.37;;;2.80;99.90;;;;;;4919468;29;20492;-94
2024/01/14 04:38:00;;;;;;;11.13;2.20;;;2.80;99.90;;;;;;4919403;29;20048;-94
2024/01/14 04:40:30;;;;;;;13.83;2.67;;;2.30;99.90;;;;;;4919875;29;20531;-94
2024/01/14 04:43:21;;;;;;;15.10;2.93;;;2.80;99.90;;;;;;4920013;29;20067;-94
2024/01/14 04:45:56;;;;;;;15.10;2.77;;;2.80;99.90;;;;;;4919341;29;20079;-95
2024/01/14 04:48:25;;;;;;;17.90;3.03;;;2.30;99.90;;;;;;4919740;29;20087;-94
2024/01/14 04:50:57;;;;;;;12.90;2.27;;;3.20;99.90;;;;;;4919506;29;20058;-94
2024/01/14 04:53:23;;;;;;;10.87;2.80;;;2.10;99.90;;;;;;4919350;29;20112;-95
2024/01/14 04:55:56;;;;;;;11.40;1.97;;;2.60;99.90;;;;;;4919802;29;20142;-94
2024/01/14 04:58:24;;;;;;;9.77;2.17;;;3.20;99.90;;;;;;4919565;29;20051;-94
2024/01/14 05:00:51;;;;;;;12.43;2.37;;;2.30;99.90;;;;;;4913512;29;20044;-94
2024/01/14 05:03:24;;;;;;;13.40;2.57;;;2.80;99.90;;;;;;4900449;29;20412;-94
2024/01/14 05:05:56;;;;;;;9.60;2.10;;;2.60;99.90;;;;;;4900398;29;20088;-94
2024/01/14 05:08:28;;;;;;;10.47;2.20;;;3.50;99.90;;;;;;4906379;23;20527;-93
2024/01/14 05:10:58;;;;;;;8.00;1.63;;;4.20;99.90;;;;;;4900830;29;20421;-93
2024/01/14 05:13:29;;;;;;;7.60;1.73;;;3.10;99.90;;;;;;4910052;29;20055;-94
2024/01/14 05:15:58;;;;;;;10.40;1.77;;;3.00;99.90;;;;;;4918939;29;20503;-94
2024/01/14 05:18:29;;;;;;;13.50;2.10;;;2.90;99.90;;;;;;4919602;29;20092;-94
2024/01/14 05:20:55;;;;;;;9.97;2.00;;;3.00;99.90;;;;;;4919126;29;20044;-94
2024/01/14 05:23:21;;;;;;;15.93;2.43;;;2.50;99.90;;;;;;4919214;29;20130;-94
2024/01/14 05:25:50;;;;;;;11.07;2.20;;;2.50;99.90;;;;;;4919451;29;20043;-94
2024/01/14 05:28:20;;;;;;;12.20;2.13;;;2.80;99.90;;;;;;4920082;29;20096;-96
2024/01/14 05:30:49;;;;;;;9.33;2.47;;;4.10;99.90;;;;;;4920020;29;20048;-93
2024/01/14 05:33:14;;;;;;;8.40;2.03;;;3.50;99.90;;;;;;4919041;29;20087;-94
2024/01/14 05:35:43;;;;;;;10.43;2.43;;;5.40;99.90;;;;;;4919229;29;20527;-93
2024/01/14 05:38:14;;;;;;;15.33;2.43;;;2.30;99.90;;;;;;4926328;29;20052;-93
2024/01/14 05:40:46;;;;;;;8.37;2.27;;;2.40;99.90;;;;;;4921456;29;20079;-94
2024/01/14 05:43:12;;;;;;;10.53;1.80;;;4.00;99.90;;;;;;4918754;29;20099;-93
2024/01/14 05:45:39;;;;;;;10.73;2.00;;;2.00;99.90;;;;;;4922437;29;20051;-94
2024/01/14 05:48:35;;;;;;;9.03;2.37;;;2.40;99.90;;;;;;4907464;29;20047;-94
2024/01/14 05:51:07;;;;;;;11.50;2.73;;;3.50;99.90;;;;;;4922591;29;20055;-94
2024/01/14 05:53:39;;;;;;;10.87;2.30;;;3.30;99.90;;;;;;4922544;29;20144;-94
2024/01/14 05:56:45;;;;;;;13.90;2.63;;;3.30;99.90;;;;;;4922251;29;20040;-93
2024/01/14 05:59:17;;;;;;;8.43;2.17;;;3.00;99.90;;;;;;4921784;29;20106;-94
2024/01/14 06:01:48;;;;;;;7.70;1.70;;;2.40;99.90;;;;;;4922640;29;20048;-94
2024/01/14 06:04:20;;;;;;;10.23;2.23;;;3.30;99.90;;;;;;4921845;29;20050;-95
2024/01/14 06:06:51;;;;;;;10.20;2.27;;;2.70;99.90;;;;;;4922116;29;20048;-93
2024/01/14 06:09:27;;;;;;;9.93;1.90;;;1.90;99.90;;;;;;4921697;29;20404;-93
2024/01/14 06:13:01;;;;;;;10.00;2.50;;;3.20;99.90;;;;;;4922053;29;20043;-93
2024/01/14 06:15:32;;;;;;;8.80;2.23;;;2.90;99.90;;;;;;4921624;29;20051;-96
2024/01/14 06:20:40;;;;;;;14.30;2.77;;;2.60;99.90;;;;;;4941173;23;20047;-93
2024/01/14 06:23:05;;;;;;;9.93;3.33;;;4.10;99.90;;;;;;4906706;29;20106;-94
2024/01/14 06:26:00;;;;;;;12.27;2.10;;;2.50;99.90;;;;;;4921952;29;20492;-94
2024/01/14 06:28:32;;;;;;;9.00;2.10;;;2.70;99.90;;;;;;4921759;29;20400;-94
2024/01/14 06:31:01;;;;;;;11.00;2.17;;;2.30;99.90;;;;;;4921448;29;20527;-95
2024/01/14 06:33:32;;;;;;;11.60;2.10;;;2.70;99.90;;;;;;4921706;29;20055;-94
2024/01/14 06:36:07;;;;;;;9.90;2.43;;;2.20;99.90;;;;;;4921535;29;20411;-95
2024/01/14 06:38:34;;;;;;;9.53;2.23;;;2.60;99.90;;;;;;4921152;29;20385;-95
2024/01/14 06:41:00;;;;;;;7.37;1.60;;;4.10;99.90;;;;;;4921549;29;20399;-94
2024/01/14 06:43:35;;;;;;;8.90;1.97;;;3.60;99.90;;;;;;4922049;29;20051;-95
2024/01/14 06:46:01;;;;;;;9.87;1.40;;;2.30;99.90;;;;;;4919621;29;20189;-92
2024/01/14 06:48:32;;;;;;;6.77;1.40;;;2.90;99.90;;;;;;4907899;29;20492;-93
2024/01/14 06:51:39;;;;;;;8.30;1.50;;;2.80;99.90;;;;;;4922089;29;20050;-95
2024/01/14 06:54:05;;;;;;;12.57;1.53;;;2.90;99.90;;;;;;4861921;29;20404;-95
2024/01/14 06:57:08;;;;;;;6.13;1.83;;;3.60;99.90;;;;;;4921044;29;20047;-94
2024/01/14 06:59:44;;;;;;;8.17;1.43;;;2.00;99.90;;;;;;4920453;29;20126;-93
2024/01/14 07:02:13;;;;;;;6.90;1.10;;;2.80;99.90;;;;;;4921152;29;20187;-96
2024/01/14 07:04:39;;;;;;;8.97;1.67;;;2.60;99.90;;;;;;4922367;29;20055;-94
2024/01/14 07:07:11;;;;;;;5.13;1.00;;;2.90;99.90;;;;;;4920664;29;20071;-95
2024/01/14 07:09:40;;;;;;;4.70;1.17;;;3.30;99.90;;;;;;4927544;23;20079;-94
2024/01/14 07:12:12;;;;;;;8.30;1.47;;;2.80;99.90;;;;;;4921077;29;20079;-94
2024/01/14 07:14:47;;;;;;;8.97;1.93;;;3.40;99.90;;;;;;4934074;29;20058;-94
2024/01/14 07:20:55;;;;;;;7.20;1.77;;;2.10;99.90;;;;;;4893054;29;20056;-94
2024/01/14 07:23:23;;;;;;;4.87;1.40;;;2.70;99.90;;;;;;4889087;29;20119;-94
2024/01/14 07:25:59;;;;;;;7.77;1.50;;;4.00;99.90;;;;;;4883608;29;20041;-94
2024/01/14 07:28:37;;;;;;;9.57;1.77;;;3.00;99.90;;;;;;4888746;29;20102;-94
2024/01/14 07:31:20;;;;;;;5.67;1.57;;;3.40;99.90;;;;;;4920999;29;20079;-94
2024/01/14 07:34:18;;;;;;;9.02;1.55;;;2.60;99.90;;;;;;4937261;29;20099;-94
2024/01/14 07:36:50;;;;;;;4.87;1.50;;;2.20;99.90;;;;;;4923469;23;20056;-95
2024/01/14 07:39:18;;;;;;;12.03;2.97;;;2.00;99.90;;;;;;4926317;29;20048;-95
2024/01/14 07:41:50;;;;;;;11.37;2.00;;;2.80;99.90;;;;;;4936332;29;20138;-94
2024/01/14 07:44:25;;;;;;;11.73;1.90;;;2.30;99.90;;;;;;4936094;29;20047;-94
2024/01/14 07:47:00;;;;;;;10.50;1.80;;;3.70;99.90;;;;;;4933953;23;20168;-93
2024/01/14 07:49:25;;;;;;;8.90;1.90;;;2.40;99.90;;;;;;4938860;23;20119;-89
2024/01/14 07:51:54;;;;;;;11.17;2.00;;;2.40;99.90;;;;;;4906734;29;20044;-90
2024/01/14 07:54:42;;;;;;;10.40;2.13;;;2.60;99.90;;;;;;4909721;29;20044;-92
2024/01/14 07:57:11;;;;;;;8.90;1.90;;;3.90;99.90;;;;;;4899124;29;20130;-92
2024/01/14 07:59:37;;;;;;;7.07;1.73;;;2.90;99.90;;;;;;4911110;29;20476;-93
2024/01/14 08:02:14;;;;;;;10.33;2.33;;;3.80;99.90;;;;;;4919826;29;20058;-93
2024/01/14 08:04:49;;;;;;;9.50;1.83;;;2.10;99.90;;;;;;4919803;29;20070;-95
2024/01/14 08:07:30;;;;;;;14.00;1.90;;;2.70;99.90;;;;;;4919344;29;20054;-93
2024/01/14 08:10:11;;;;;;;12.80;3.90;;;2.80;99.90;;;;;;4919604;29;20504;-94
2024/01/14 08:12:37;;;;;;;16.23;8.27;;;2.90;99.90;;;;;;4920490;29;20484;-94
2024/01/14 08:15:11;;;;;;;27.17;13.23;;;3.20;99.90;;;;;;4920267;29;20046;-94
2024/01/14 08:17:46;;;;;;;15.90;7.27;;;3.10;99.90;;;;;;4920452;29;20055;-95
2024/01/14 08:20:25;;;;;;;12.43;5.27;;;2.90;99.90;;;;;;4918902;29;20058;-94
2024/01/14 08:22:54;;;;;;;9.67;2.93;;;3.70;99.90;;;;;;4919361;29;20499;-92
2024/01/14 08:25:29;;;;;;;24.10;15.07;;;2.60;99.90;;;;;;4918755;29;20051;-89
2024/01/14 08:27:55;;;;;;;16.00;9.13;;;2.80;99.90;;;;;;4918363;29;20059;-89
2024/01/14 08:30:21;;;;;;;17.73;11.30;;;2.80;99.90;;;;;;4917693;29;20043;-90
2024/01/14 08:32:47;;;;;;;17.73;7.17;;;3.20;99.90;;;;;;4918557;29;20047;-90
2024/01/14 08:35:18;;;;;;;21.33;13.07;;;2.80;99.90;;;;;;4918226;29;20460;-89
2024/01/14 08:37:46;;;;;;;11.03;3.03;;;2.70;99.90;;;;;;4917771;29;20040;-90
2024/01/14 08:40:23;;;;;;;18.07;11.10;;;2.80;99.90;;;;;;4916205;29;20052;-90
2024/01/14 08:42:55;;;;;;;21.13;16.17;;;3.20;99.90;;;;;;4917868;29;20047;-91
2024/01/14 08:45:21;;;;;;;24.87;16.70;;;3.90;99.90;;;;;;4917925;29;20039;-91
2024/01/14 08:47:47;;;;;;;16.00;10.17;;;3.00;99.90;;;;;;4918806;29;20134;-90
2024/01/14 08:50:13;;;;;;;14.67;5.93;;;3.20;99.90;;;;;;4919037;29;20060;-91
2024/01/14 08:52:39;;;;;;;15.63;7.83;;;3.20;99.90;;;;;;4921247;29;20139;-91
2024/01/14 08:55:11;;;;;;;16.00;8.33;;;3.20;99.90;;;;;;4918448;29;20051;-91
2024/01/14 08:57:38;;;;;;;19.23;11.90;;;3.30;99.90;;;;;;4918722;29;20134;-90
2024/01/14 09:00:05;;;;;;;12.47;4.50;;;3.30;99.90;;;;;;4917459;29;20063;-91
2024/01/14 09:02:31;;;;;;;13.43;4.43;;;3.30;99.90;;;;;;4921280;29;20054;-92
2024/01/14 09:04:57;;;;;;;17.23;10.97;;;3.30;99.90;;;;;;4921666;29;20052;-86
2024/01/14 09:07:25;;;;;;;17.40;9.40;;;3.30;99.90;;;;;;4918457;29;20151;-91
2024/01/14 09:09:51;;;;;;;15.67;3.73;;;3.30;99.90;;;;;;4918223;29;20090;-89
2024/01/14 09:12:16;;;;;;;19.50;10.93;;;3.30;99.90;;;;;;4917403;29;20079;-89
2024/01/14 09:14:42;;;;;;;12.97;4.27;;;3.30;99.90;;;;;;4918225;29;20050;-88
2024/01/14 09:17:08;;;;;;;13.67;4.00;;;3.30;99.90;;;;;;4917791;29;20039;-88
2024/01/14 09:19:34;;;;;;;18.33;11.60;;;4.30;99.90;;;;;;4919049;29;20480;-89
2024/01/14 09:22:00;;;;;;;24.93;18.10;;;3.30;99.90;;;;;;4920512;29;20059;-90
2024/01/14 09:24:29;;;;;;;23.07;14.60;;;3.30;99.90;;;;;;4923733;29;20141;-96
2024/01/14 09:26:54;;;;;;;13.23;4.30;;;3.40;99.90;;;;;;4923317;29;20051;-96
2024/01/14 09:29:21;;;;;;;12.40;4.40;;;3.40;99.90;;;;;;4922919;29;20047;-94
2024/01/14 09:31:47;;;;;;;19.13;7.70;;;3.40;99.90;;;;;;4922182;29;20055;-91
2024/01/14 09:34:12;;;;;;;13.90;5.00;;;3.40;99.90;;;;;;4900112;29;20404;-89
2024/01/14 09:36:40;;;;;;;14.63;5.50;;;3.40;99.90;;;;;;4902548;29;20051;-89
2024/01/14 09:39:10;;;;;;;13.13;4.70;;;3.50;99.90;;;;;;4902492;29;20123;-90
2024/01/14 09:41:57;;;;;;;15.90;4.57;;;3.50;99.90;;;;;;4902037;29;20504;-90
2024/01/14 09:44:23;;;;;;;14.70;4.53;;;3.50;99.90;;;;;;4902858;29;20085;-89
2024/01/14 09:46:49;;;;;;;14.63;4.60;;;3.50;99.90;;;;;;4902572;29;20087;-89
2024/01/14 09:49:16;;;;;;;14.17;4.90;;;3.50;99.90;;;;;;4901746;29;20091;-89
2024/01/14 09:51:42;;;;;;;16.37;5.40;;;3.50;99.90;;;;;;4902558;29;20493;-89
2024/01/14 09:54:08;;;;;;;15.10;4.97;;;3.50;99.90;;;;;;4902569;29;20050;-89
2024/01/14 09:56:35;;;;;;;12.30;3.70;;;3.60;99.90;;;;;;4901666;29;20044;-89
2024/01/14 09:59:02;;;;;;;11.53;3.53;;;3.60;99.90;;;;;;4902266;29;20044;-89
2024/01/14 10:01:33;;;;;;;15.17;3.67;;;3.60;99.90;;;;;;4900485;29;20493;-89
2024/01/14 10:04:00;;;;;;;11.53;3.07;;;3.60;99.90;;;;;;4901340;29;20036;-90
2024/01/14 10:06:27;;;;;;;12.27;3.60;;;3.60;99.90;;;;;;4901724;29;20060;-90
2024/01/14 10:08:52;;;;;;;13.03;3.60;;;3.60;99.90;;;;;;4900957;29;20048;-90
2024/01/14 10:11:18;;;;;;;11.77;3.80;;;3.50;99.90;;;;;;4901770;29;20046;-91
2024/01/14 10:13:43;;;;;;;12.50;3.67;;;3.50;99.90;;;;;;4901930;29;20044;-89
2024/01/14 10:16:12;;;;;;;13.70;4.60;;;3.50;99.90;;;;;;4900582;29;20040;-91
2024/01/14 10:18:37;;;;;;;14.33;5.20;;;3.40;99.90;;;;;;4902672;29;20452;-95
2024/01/14 10:21:04;;;;;;;14.33;4.70;;;3.40;99.90;;;;;;4902465;29;20059;-93
2024/01/14 10:23:31;;;;;;;17.83;5.97;;;3.50;99.90;;;;;;4901735;29;20445;-93
2024/01/14 10:26:01;;;;;;;14.53;5.67;;;3.60;99.90;;;;;;4903580;29;20050;-94
2024/01/14 10:28:31;;;;;;;16.23;5.60;;;3.60;99.90;;;;;;4905056;29;20044;-96
2024/01/14 10:30:58;;;;;;;14.47;6.20;;;3.60;99.90;;;;;;4907885;29;20044;-96
2024/01/14 10:33:25;;;;;;;16.53;6.47;;;3.50;99.90;;;;;;4912738;29;20045;-96
2024/01/14 10:35:51;;;;;;;18.73;6.40;;;3.50;99.90;;;;;;4903673;29;20486;-96
2024/01/14 10:38:21;;;;;;;18.50;7.40;;;3.50;99.90;;;;;;4904229;29;20070;-96
2024/01/14 10:40:46;;;;;;;18.13;7.50;;;3.50;99.90;;;;;;4907163;29;20168;-96
2024/01/14 10:43:12;;;;;;;20.43;8.27;;;3.50;99.90;;;;;;4910432;29;20079;-95
2024/01/14 10:45:38;;;;;;;19.10;7.70;;;3.50;99.90;;;;;;4912041;29;20080;-90
2024/01/14 10:48:09;;;;;;;21.20;8.80;;;3.50;99.90;;;;;;4915108;29;20105;-95
2024/01/14 10:50:36;;;;;;;21.83;9.40;;;3.50;99.90;;;;;;4904641;29;20056;-96
2024/01/14 10:53:03;;;;;;;22.47;8.53;;;3.50;99.90;;;;;;4898854;29;20048;-92
2024/01/14 10:55:49;;;;;;;21.03;8.97;;;3.40;99.90;;;;;;4901677;29;20194;-92
2024/01/14 10:58:26;;;;;;;23.90;9.37;;;3.50;99.90;;;;;;4952870;23;20150;-91
2024/01/14 11:01:24;;;;;;;18.90;7.90;;;3.50;99.90;;;;;;4976150;28;20049;-94
2024/01/14 11:04:07;;;;;;;20.02;8.50;;;4.10;99.90;;;;;;4958704;28;20046;-93
2024/01/14 11:06:48;;;;;;;21.90;9.33;;;3.70;99.90;;;;;;4958114;28;20101;-94
2024/01/14 11:09:23;;;;;;;22.57;9.40;;;3.60;99.90;;;;;;4958997;28;20054;-94
2024/01/14 11:12:10;;;;;;;24.60;9.73;;;3.30;99.90;;;;;;4959061;28;20047;-94
2024/01/14 11:15:41;;;;;;;25.93;10.97;;;3.50;99.90;;;;;;4965021;28;20472;-94
2024/01/14 11:18:33;;;;;;;25.57;11.70;;;3.70;99.90;;;;;;4903988;29;20048;-94
2024/01/14 11:21:30;;;;;;;25.53;11.10;;;3.60;99.90;;;;;;4901208;29;20056;-95
2024/01/14 11:24:10;;;;;;;90.00;42.33;;;3.50;99.90;;;;;;4900744;29;20080;-95
2024/01/14 11:26:52;;;;;;;45.13;24.33;;;4.50;99.90;;;;;;4883757;29;20045;-94
2024/01/14 11:32:27;;;;;;;29.47;13.93;;;3.60;99.90;;;;;;4903425;29;20056;-93
2024/01/14 11:35:09;;;;;;;26.23;11.53;;;4.70;99.90;;;;;;4919932;29;20088;-95
2024/01/14 11:37:48;;;;;;;30.03;11.77;;;5.30;99.90;;;;;;4917563;29;20051;-94
2024/01/14 11:40:27;;;;;;;25.13;11.37;;;3.90;99.90;;;;;;4916746;29;20048;-93
2024/01/14 11:43:05;;;;;;;26.10;11.07;;;3.50;99.90;;;;;;4906649;29;20095;-93
2024/01/14 11:50:00;;;;;;;;;;;;;;;;;;;;;
2024/01/14 11:52:42;;;;;;;20.73;9.67;;;3.20;99.90;;;;;;4881175;29;20525;-93
2024/01/14 11:55:30;;;;;;;21.23;8.90;;;5.00;99.90;;;;;;4880470;29;20490;-95
2024/01/14 12:01:48;;;;;;;27.80;10.30;;;3.30;99.90;;;;;;4880999;29;20501;-94
2024/01/14 12:04:23;;;;;;;23.53;10.77;;;4.90;99.90;;;;;;4881314;29;20100;-92
2024/01/14 12:07:04;;;;;;;23.53;10.60;;;4.00;99.90;;;;;;4881277;29;20561;-90
2024/01/14 12:09:52;;;;;;;24.00;12.87;;;3.90;99.90;;;;;;4880804;29;20044;-89
2024/01/14 12:12:17;;;;;;;21.67;9.73;;;5.60;99.90;;;;;;4893037;29;20068;-90
2024/01/14 12:14:43;;;;;;;25.90;10.90;;;3.90;99.90;;;;;;4900062;29;20051;-89
2024/01/14 12:17:10;;;;;;;23.37;10.07;;;3.90;99.90;;;;;;4898697;29;20059;-89
2024/01/14 12:19:35;;;;;;;19.50;8.60;;;3.80;99.90;;;;;;4899742;29;20079;-88
2024/01/14 12:22:01;;;;;;;21.73;9.97;;;3.80;99.90;;;;;;4899099;29;20130;-88
2024/01/14 12:24:29;;;;;;;19.57;8.40;;;3.80;99.90;;;;;;4899436;29;20489;-89
2024/01/14 12:26:58;;;;;;;20.00;8.40;;;3.80;99.90;;;;;;4899457;29;20099;-89
2024/01/14 12:29:24;;;;;;;17.60;8.10;;;3.80;99.90;;;;;;4899996;29;20063;-90
2024/01/14 12:31:49;;;;;;;19.77;8.60;;;3.80;99.90;;;;;;4900516;29;20076;-90
2024/01/14 12:34:15;;;;;;;19.33;8.00;;;3.80;99.90;;;;;;4910229;29;20155;-90
2024/01/14 12:36:40;;;;;;;19.73;7.63;;;3.80;99.90;;;;;;4899728;29;20051;-91
2024/01/14 12:39:06;;;;;;;21.87;8.97;;;3.70;99.90;;;;;;4900899;29;20044;-93
2024/01/14 12:41:32;;;;;;;18.93;8.07;;;3.80;99.90;;;;;;4895564;29;20400;-91
2024/01/14 12:43:58;;;;;;;21.10;9.50;;;3.80;99.90;;;;;;4893467;29;20037;-91
2024/01/14 12:46:24;;;;;;;21.63;9.83;;;4.20;99.90;;;;;;4889344;29;20449;-91
2024/01/14 12:48:50;;;;;;;24.97;10.13;;;4.60;99.90;;;;;;4891755;29;20044;-92
2024/01/14 12:51:23;;;;;;;21.83;9.27;;;4.80;99.90;;;;;;4888398;29;20067;-92
2024/01/14 12:53:55;;;;;;;20.77;9.40;;;3.80;99.90;;;;;;4891750;29;20036;-92
2024/01/14 12:56:23;;;;;;;23.23;9.80;;;3.70;99.90;;;;;;4889867;29;20036;-92
2024/01/14 12:58:49;;;;;;;23.50;9.90;;;4.80;99.90;;;;;;4888795;29;20516;-92
2024/01/14 13:01:15;;;;;;;24.30;10.23;;;3.70;99.90;;;;;;4888961;29;20041;-92
2024/01/14 13:03:41;;;;;;;22.00;9.87;;;3.70;99.90;;;;;;4892986;29;20040;-92
2024/01/14 13:06:07;;;;;;;25.83;10.73;;;3.70;99.90;;;;;;4890577;29;20056;-92
2024/01/14 13:08:34;;;;;;;27.10;11.80;;;3.70;99.90;;;;;;4888272;29;20052;-92
2024/01/14 13:11:00;;;;;;;24.03;9.87;;;4.30;99.90;;;;;;4890138;29;20037;-92
2024/01/14 13:13:27;;;;;;;25.40;10.33;;;3.70;99.90;;;;;;4892327;29;20047;-91
2024/01/14 13:15:52;;;;;;;27.67;11.43;;;3.70;99.90;;;;;;4883908;29;20683;-92
2024/01/14 13:18:18;;;;;;;23.80;11.17;;;3.70;99.90;;;;;;4892576;29;20062;-91
2024/01/14 13:20:44;;;;;;;23.27;10.87;;;3.70;99.90;;;;;;4888164;29;20052;-93
2024/01/14 13:23:09;;;;;;;27.63;12.30;;;3.60;99.90;;;;;;4891165;29;20076;-92
2024/01/14 13:25:35;;;;;;;24.83;9.77;;;3.60;99.90;;;;;;4892862;29;20072;-91
2024/01/14 13:28:01;;;;;;;25.33;11.50;;;3.60;99.90;;;;;;4889846;29;20067;-93
2024/01/14 13:30:27;;;;;;;32.17;16.07;;;3.60;99.90;;;;;;4889064;29;20052;-92
2024/01/14 13:32:53;;;;;;;25.40;11.20;;;3.60;99.90;;;;;;4891486;29;20071;-94
2024/01/14 13:35:19;;;;;;;26.93;11.60;;;4.00;99.90;;;;;;4890709;29;20489;-94
2024/01/14 13:37:45;;;;;;;30.90;14.17;;;3.60;99.90;;;;;;4886392;29;20104;-93
2024/01/14 13:40:12;;;;;;;25.67;11.30;;;4.60;99.90;;;;;;4880976;29;20048;-93
2024/01/14 13:42:37;;;;;;;27.13;11.70;;;3.60;99.90;;;;;;4881187;29;20079;-93
2024/01/14 13:45:04;;;;;;;24.00;11.17;;;3.60;99.90;;;;;;4881389;29;20080;-94
2024/01/14 13:47:29;;;;;;;61.00;31.90;;;3.60;99.90;;;;;;4881039;29;20041;-93
2024/01/14 13:49:56;;;;;;;48.73;26.93;;;3.50;99.90;;;;;;4881106;29;20560;-93
2024/01/14 13:52:22;;;;;;;92.83;48.83;;;3.50;99.90;;;;;;4881395;29;20060;-94
2024/01/14 13:54:47;;;;;;;37.07;20.37;;;3.50;99.90;;;;;;4881413;29;20045;-94
2024/01/14 13:57:13;;;;;;;31.40;16.90;;;3.50;99.90;;;;;;4881751;29;20560;-92
2024/01/14 13:59:39;;;;;;;58.20;34.90;;;3.50;99.90;;;;;;4882718;29;20074;-95
2024/01/14 14:02:05;;;;;;;35.67;20.43;;;3.50;99.90;;;;;;4882312;29;20404;-90
2024/01/14 14:04:30;;;;;;;27.20;14.93;;;3.50;99.90;;;;;;4880735;29;20116;-92
2024/01/14 14:06:56;;;;;;;25.43;12.60;;;3.50;99.90;;;;;;4883394;29;20079;-90
2024/01/14 14:09:22;;;;;;;47.93;25.47;;;3.50;99.90;;;;;;4882844;29;20472;-90